Time;durP1;ratioP1;P1;durP2;ratioP2;P2;SDS_P1;SDS_P2;PMS_P1;PMS_P2;Temp;Humidity;BMP_temperature;BMP_pressure;BME280_temperature;BME280_humidity;BME280_pressure;Samples;Min_cycle;Max_cycle;Signal;HPM_P1;HPM_P2
2021/10/28 00:14:33;;;;;;;;;107.25;105.50;12.70;45.50;;;;;;5095763;28;8748;-60
2021/10/28 00:17:00;;;;;;;;;104.75;102.75;12.70;45.30;;;;;;5095489;28;9638;-60
2021/10/28 00:19:27;;;;;;;;;108.50;106.00;12.60;45.40;;;;;;5095072;28;8772;-60
2021/10/28 00:21:54;;;;;;;;;104.25;100.75;12.70;45.50;;;;;;5095392;28;8799;-59
2021/10/28 00:24:20;;;;;;;;;107.25;105.25;12.70;45.40;;;;;;5095665;28;8798;-59
2021/10/28 00:26:47;;;;;;;;;106.75;102.75;12.70;45.30;;;;;;5095405;28;8776;-59
2021/10/28 00:29:18;;;;;;;;;107.00;99.50;12.60;45.40;;;;;;5095628;28;8798;-59
2021/10/28 00:31:45;;;;;;;;;113.25;110.50;12.60;45.60;;;;;;5095281;28;8789;-60
2021/10/28 00:34:14;;;;;;;;;115.75;111.75;12.60;45.60;;;;;;5095297;28;8795;-60
2021/10/28 00:36:43;;;;;;;;;110.25;107.75;12.60;45.50;;;;;;5094947;28;8803;-61
2021/10/28 00:39:09;;;;;;;;;98.50;93.00;12.60;45.40;;;;;;5095154;28;8810;-59
2021/10/28 00:41:36;;;;;;;;;99.50;96.25;12.60;45.60;;;;;;5094954;28;8823;-59
2021/10/28 00:44:03;;;;;;;;;94.00;88.50;12.50;45.80;;;;;;5095069;28;8798;-59
2021/10/28 00:46:31;;;;;;;;;94.00;92.50;12.50;45.60;;;;;;5094732;28;8792;-60
2021/10/28 00:48:59;;;;;;;;;89.00;83.75;12.60;45.40;;;;;;5094952;28;8772;-60
2021/10/28 00:51:27;;;;;;;;;93.00;88.50;12.60;45.40;;;;;;5094921;28;8780;-59
2021/10/28 00:53:55;;;;;;;;;93.75;88.75;12.60;45.40;;;;;;5095282;28;8760;-60
2021/10/28 00:56:22;;;;;;;;;88.00;79.75;12.60;45.30;;;;;;5095182;28;8759;-59
2021/10/28 00:58:50;;;;;;;;;92.50;89.50;12.60;45.30;;;;;;5094928;28;8763;-60
2021/10/28 01:01:16;;;;;;;;;90.25;80.75;12.50;45.10;;;;;;5094729;28;8799;-60
2021/10/28 01:03:43;;;;;;;;;87.75;77.50;12.50;45.20;;;;;;5095047;28;9430;-60
2021/10/28 01:06:10;;;;;;;;;91.50;85.75;12.50;45.10;;;;;;5094699;28;8786;-60
2021/10/28 01:08:38;;;;;;;;;94.75;90.25;12.50;45.20;;;;;;5094711;28;8886;-60
2021/10/28 01:11:06;;;;;;;;;89.50;82.25;12.50;45.40;;;;;;5076839;28;8803;-60
2021/10/28 01:13:32;;;;;;;;;93.50;89.00;12.50;45.50;;;;;;5094715;28;8832;-60
2021/10/28 01:15:58;;;;;;;;;100.25;97.75;12.40;45.40;;;;;;5094563;28;8783;-60
2021/10/28 01:18:23;;;;;;;;;95.25;91.00;12.40;45.50;;;;;;5094935;28;8822;-59
2021/10/28 01:20:52;;;;;;;;;93.00;87.50;12.40;45.60;;;;;;5094704;28;8795;-60
2021/10/28 01:23:21;;;;;;;;;100.75;94.00;12.30;45.40;;;;;;5094533;28;8784;-62
2021/10/28 01:25:59;;;;;;;;;110.25;110.00;12.30;45.70;;;;;;5094712;28;8760;-62
2021/10/28 01:28:28;;;;;;;;;93.25;83.25;12.30;45.80;;;;;;5094590;28;8764;-61
2021/10/28 01:31:01;;;;;;;;;98.50;94.75;12.20;45.80;;;;;;5094765;28;8760;-60
2021/10/28 01:33:27;;;;;;;;;114.50;107.50;12.30;45.90;;;;;;5098558;28;8768;-62
2021/10/28 01:35:54;;;;;;;;;118.50;113.25;12.30;45.70;;;;;;5098524;28;8828;-62
2021/10/28 01:38:20;;;;;;;;;115.50;114.00;12.30;45.80;;;;;;5098911;28;8786;-60
2021/10/28 01:40:56;;;;;;;;;118.75;112.25;12.30;45.70;;;;;;5098568;28;8795;-61
2021/10/28 01:43:23;;;;;;;;;114.50;107.75;12.40;45.60;;;;;;5098732;28;8807;-59
2021/10/28 01:45:49;;;;;;;;;120.50;107.75;12.40;45.40;;;;;;5098805;28;8856;-60
2021/10/28 01:48:16;;;;;;;;;110.75;103.75;12.40;45.40;;;;;;5098820;28;9446;-60
2021/10/28 01:50:42;;;;;;;;;100.50;97.75;12.40;45.30;;;;;;5098394;28;8780;-63
2021/10/28 01:53:10;;;;;;;;;112.00;110.00;12.30;45.40;;;;;;5096866;28;8875;-60
2021/10/28 01:55:35;;;;;;;;;107.75;103.00;12.30;45.30;;;;;;5098253;28;8771;-60
2021/10/28 01:58:01;;;;;;;;;117.75;113.50;12.40;45.30;;;;;;5098229;28;8771;-60
2021/10/28 02:00:27;;;;;;;;;113.75;111.25;12.30;45.20;;;;;;5098165;28;8775;-62
2021/10/28 02:02:54;;;;;;;;;120.00;113.25;12.40;45.50;;;;;;5098195;28;8748;-59
2021/10/28 02:05:22;;;;;;;;;102.75;98.00;12.30;45.40;;;;;;5098110;28;8759;-61
2021/10/28 02:07:49;;;;;;;;;119.75;114.50;12.40;45.30;;;;;;5098080;28;8764;-61
2021/10/28 02:10:16;;;;;;;;;121.50;118.50;12.40;45.20;;;;;;5098240;28;9563;-62
2021/10/28 02:12:46;;;;;;;;;124.75;118.75;12.30;45.00;;;;;;5097997;28;8882;-60
2021/10/28 02:15:13;;;;;;;;;126.75;124.50;12.30;45.00;;;;;;5097940;28;8748;-60
2021/10/28 02:17:40;;;;;;;;;135.00;128.25;12.30;45.00;;;;;;5098068;28;8914;-62
2021/10/28 02:20:08;;;;;;;;;104.50;86.00;12.20;44.90;;;;;;5097993;28;8803;-61
2021/10/28 02:22:35;;;;;;;;;141.75;137.00;12.20;45.20;;;;;;5097830;28;8775;-62
2021/10/28 02:25:02;;;;;;;;;135.50;129.75;12.20;46.20;;;;;;5098014;28;8763;-62
2021/10/28 02:27:28;;;;;;;;;127.75;125.25;12.20;45.10;;;;;;5097717;28;8759;-61
2021/10/28 02:29:54;;;;;;;;;140.25;129.75;12.20;45.20;;;;;;5097668;28;8783;-62
2021/10/28 02:32:21;;;;;;;;;141.00;137.75;12.20;45.20;;;;;;5097414;28;8774;-63
2021/10/28 02:34:47;;;;;;;;;153.00;146.25;12.10;45.00;;;;;;5076683;28;8746;-62
2021/10/28 02:37:13;;;;;;;;;154.75;151.25;12.10;45.00;;;;;;5077048;28;8821;-62
2021/10/28 02:39:39;;;;;;;;;166.50;161.75;12.00;44.90;;;;;;5077136;28;8787;-62
2021/10/28 02:42:06;;;;;;;;;168.25;159.25;12.00;44.90;;;;;;5076870;28;8809;-62
2021/10/28 02:44:32;;;;;;;;;150.50;141.25;12.00;45.10;;;;;;5077042;28;8778;-62
2021/10/28 02:46:58;;;;;;;;;150.50;140.25;12.00;45.40;;;;;;5059242;28;8797;-61
2021/10/28 02:49:25;;;;;;;;;152.25;144.75;11.90;45.50;;;;;;5077160;28;9490;-63
2021/10/28 02:51:51;;;;;;;;;148.25;143.00;11.90;45.80;;;;;;5077182;28;8750;-62
2021/10/28 02:54:19;;;;;;;;;144.75;139.25;11.90;45.60;;;;;;5076921;28;8788;-62
2021/10/28 02:56:45;;;;;;;;;129.75;125.75;11.90;45.80;;;;;;5077082;28;9411;-63
2021/10/28 02:59:11;;;;;;;;;131.75;127.50;11.80;45.60;;;;;;5076883;28;8812;-62
2021/10/28 03:01:46;;;;;;;;;128.75;117.00;11.80;45.10;;;;;;5076558;28;8858;-61
2021/10/28 03:04:12;;;;;;;;;120.50;117.25;11.70;45.00;;;;;;5076802;28;8742;-62
2021/10/28 03:06:40;;;;;;;;;109.75;109.75;11.70;44.90;;;;;;5077089;28;8751;-62
2021/10/28 03:09:08;;;;;;;;;116.25;111.75;11.60;45.00;;;;;;5076697;28;8762;-62
2021/10/28 03:11:34;;;;;;;;;108.00;105.00;11.60;44.90;;;;;;5076692;28;8750;-62
2021/10/28 03:14:00;;;;;;;;;106.75;103.00;11.60;45.00;;;;;;5076656;28;8762;-61
2021/10/28 03:27:17;;;;;;;;;102.00;99.00;11.40;45.50;;;;;;5076416;28;8746;-61
2021/10/28 03:29:43;;;;;;;;;114.25;107.75;11.40;45.50;;;;;;5076488;28;8813;-61
2021/10/28 03:32:09;;;;;;;;;94.75;90.75;11.40;45.50;;;;;;5076171;28;9451;-62
2021/10/28 03:34:35;;;;;;;;;95.75;91.25;11.40;45.50;;;;;;5076402;28;8805;-62
2021/10/28 03:37:14;;;;;;;;;90.50;83.00;11.40;45.40;;;;;;5075883;28;8802;-62
2021/10/28 03:40:06;;;;;;;;;94.00;89.50;11.40;45.40;;;;;;5081926;28;8764;-62
2021/10/28 03:45:30;;;;;;;;;119.50;114.50;11.40;45.40;;;;;;5095705;28;8771;-61
2021/10/28 03:58:49;;;;;;;;;118.25;110.50;11.10;45.80;;;;;;5075886;28;8742;-63
2021/10/28 04:18:31;;;;;;;;;99.75;95.75;11.00;46.00;;;;;;5075882;28;8810;-62
2021/10/28 04:29:06;;;;;;;;;95.50;87.25;11.00;45.90;;;;;;5075100;28;8750;-63
2021/10/28 04:31:35;;;;;;;;;111.25;110.25;10.90;46.00;;;;;;5075046;28;8774;-63
2021/10/28 04:34:08;;;;;;;;;103.50;98.25;10.90;46.20;;;;;;5074975;28;8789;-62
2021/10/28 04:36:35;;;;;;;;;115.25;110.75;10.90;46.30;;;;;;5074677;28;8813;-63
2021/10/28 04:39:06;;;;;;;;;117.75;111.25;10.90;46.30;;;;;;5077121;28;8793;-62
2021/10/28 04:41:32;;;;;;;;;115.50;111.25;10.80;46.30;;;;;;5091196;28;8921;-62
2021/10/28 04:43:58;;;;;;;;;101.50;100.25;10.90;46.30;;;;;;5088338;28;8785;-62
2021/10/28 04:46:25;;;;;;;;;113.00;107.75;10.90;46.10;;;;;;5074544;28;8856;-62
2021/10/28 04:48:51;;;;;;;;;149.00;142.25;10.90;46.00;;;;;;5074512;28;8782;-61
2021/10/28 04:51:17;;;;;;;;;159.00;152.25;10.90;45.80;;;;;;5074719;28;8777;-62
2021/10/28 04:53:43;;;;;;;;;149.00;141.75;10.90;45.80;;;;;;5074710;28;8751;-63
2021/10/28 04:56:09;;;;;;;;;171.00;158.25;10.90;45.50;;;;;;5074864;28;8758;-61
2021/10/28 04:58:35;;;;;;;;;172.00;165.75;10.90;45.30;;;;;;5074585;28;8912;-62
2021/10/28 05:01:01;;;;;;;;;150.75;147.75;10.80;45.30;;;;;;5074333;28;8912;-63
2021/10/28 05:03:26;;;;;;;;;155.75;150.00;10.80;45.20;;;;;;5074835;28;8762;-62
2021/10/28 05:05:53;;;;;;;;;144.50;141.00;10.80;45.10;;;;;;5074297;28;8774;-62
2021/10/28 05:08:18;;;;;;;;;133.25;130.25;10.70;45.30;;;;;;5074430;28;8888;-62
2021/10/28 05:10:45;;;;;;;;;136.75;129.75;10.70;45.20;;;;;;5074388;28;8785;-62
2021/10/28 05:13:13;;;;;;;;;138.25;132.75;10.70;46.20;;;;;;5074598;28;8766;-63
2021/10/28 05:15:47;;;;;;;;;128.00;125.75;10.70;45.30;;;;;;5074490;28;9451;-62
2021/10/28 05:18:14;;;;;;;;;139.00;133.00;10.60;45.20;;;;;;5077484;28;8813;-61
2021/10/28 05:20:40;;;;;;;;;128.00;125.25;10.60;45.30;;;;;;5085160;28;8827;-61
2021/10/28 05:23:06;;;;;;;;;124.25;120.75;10.60;45.30;;;;;;5085652;28;8771;-62
2021/10/28 05:25:33;;;;;;;;;117.50;114.25;10.60;45.30;;;;;;5081312;28;8779;-62
2021/10/28 05:27:59;;;;;;;;;103.50;100.00;10.60;45.50;;;;;;5082077;28;8786;-62
2021/10/28 05:30:25;;;;;;;;;140.00;135.00;10.60;45.50;;;;;;5084200;28;8800;-63
2021/10/28 05:32:51;;;;;;;;;124.75;123.00;10.50;45.60;;;;;;5085322;28;8776;-63
2021/10/28 05:35:17;;;;;;;;;125.50;120.50;10.50;45.60;;;;;;5083296;28;8768;-62
2021/10/28 05:37:44;;;;;;;;;121.50;118.25;10.50;45.70;;;;;;5080667;28;8849;-62
2021/10/28 05:40:11;;;;;;;;;120.75;116.75;10.60;45.70;;;;;;5083430;28;8789;-61
2021/10/28 05:42:43;;;;;;;;;122.25;118.75;10.60;45.50;;;;;;5083027;28;8775;-63
2021/10/28 05:45:10;;;;;;;;;121.75;120.75;10.60;45.50;;;;;;5082296;28;8779;-63
2021/10/28 05:47:37;;;;;;;;;123.00;121.50;10.60;45.60;;;;;;5080696;28;8878;-60
2021/10/28 05:50:07;;;;;;;;;148.25;142.50;10.60;45.70;;;;;;5080138;28;8909;-62
2021/10/28 05:52:34;;;;;;;;;153.50;147.75;10.60;45.80;;;;;;5083328;28;8766;-62
2021/10/28 05:55:02;;;;;;;;;157.00;151.00;10.60;45.60;;;;;;5084495;28;8784;-62
2021/10/28 05:57:28;;;;;;;;;153.00;147.25;10.60;45.40;;;;;;5081988;28;8790;-62
2021/10/28 05:59:54;;;;;;;;;166.50;157.50;10.70;45.40;;;;;;5079969;28;8772;-62
2021/10/28 06:02:20;;;;;;;;;154.00;150.50;10.70;45.60;;;;;;5082460;28;9445;-61
2021/10/28 06:04:45;;;;;;;;;173.50;166.75;10.70;45.60;;;;;;5080798;28;8858;-63
2021/10/28 06:07:11;;;;;;;;;184.00;174.25;10.80;45.40;;;;;;5078046;28;8857;-62
2021/10/28 06:09:37;;;;;;;;;179.50;170.25;10.80;45.50;;;;;;5082117;28;8792;-62
2021/10/28 06:12:04;;;;;;;;;196.25;179.25;10.80;45.50;;;;;;5086786;28;8792;-62
2021/10/28 06:14:32;;;;;;;;;182.75;168.75;10.80;45.30;;;;;;5077437;28;8762;-63
2021/10/28 06:17:06;;;;;;;;;192.00;177.75;10.80;45.40;;;;;;5084603;28;8770;-62
2021/10/28 06:19:32;;;;;;;;;195.00;191.00;10.80;45.50;;;;;;5095774;28;9537;-62
2021/10/28 06:22:00;;;;;;;;;200.50;191.25;10.90;45.60;;;;;;5088367;28;8854;-62
2021/10/28 06:24:26;;;;;;;;;229.00;212.25;11.00;45.50;;;;;;5083646;28;8802;-74
2021/10/28 06:26:52;;;;;;;;;242.50;232.25;10.90;45.40;;;;;;5080089;28;8768;-61
2021/10/28 06:29:18;;;;;;;;;250.75;234.75;11.00;45.50;;;;;;5084474;28;8851;-61
2021/10/28 06:31:46;;;;;;;;;210.25;185.00;11.00;45.30;;;;;;5089256;28;8764;-62
2021/10/28 06:34:18;;;;;;;;;233.25;214.25;11.00;45.50;;;;;;5096498;28;8783;-61
2021/10/28 06:36:46;;;;;;;;;229.50;217.75;11.10;45.70;;;;;;5097352;28;8806;-60
2021/10/28 06:39:12;;;;;;;;;227.75;218.50;11.10;45.40;;;;;;5079613;28;8771;-63
2021/10/28 06:41:38;;;;;;;;;222.25;210.75;11.10;45.10;;;;;;5097215;28;8821;-63
2021/10/28 06:44:04;;;;;;;;;231.75;223.50;11.10;44.80;;;;;;5097582;28;8764;-61
2021/10/28 06:46:30;;;;;;;;;225.75;212.25;11.20;45.30;;;;;;5093141;28;8791;-61
2021/10/28 06:48:56;;;;;;;;;226.25;216.25;11.20;44.80;;;;;;5091382;28;8810;-62
2021/10/28 06:51:24;;;;;;;;;196.50;191.50;11.20;45.30;;;;;;5085602;28;8812;-60
2021/10/28 07:04:38;;;;;;;;;196.00;183.50;11.30;45.20;;;;;;5079553;28;8776;-62
2021/10/28 07:07:04;;;;;;;;;210.00;194.25;11.40;45.60;;;;;;5096761;28;8782;-62
2021/10/28 07:09:33;;;;;;;;;205.25;201.50;11.40;45.30;;;;;;5091498;28;8789;-63
2021/10/28 07:14:31;;;;;;;;;230.75;222.00;11.60;45.20;;;;;;5084602;28;8825;-63
2021/10/28 07:17:17;;;;;;;;;217.75;208.25;11.60;45.10;;;;;;5067410;28;8814;-63
2021/10/28 07:57:38;;;;;;;;;362.25;336.25;12.70;45.50;;;;;;5078357;28;8754;-59
2021/10/28 08:16:31;;;;;;;;;341.75;326.25;13.30;44.90;;;;;;5095452;28;9444;-60
2021/10/28 08:19:17;;;;;;;;;336.75;311.75;13.40;45.00;;;;;;5095262;28;8889;-60
2021/10/28 08:21:49;;;;;;;;;345.75;319.00;13.50;45.00;;;;;;5095297;28;8815;-56
2021/10/28 08:29:44;;;;;;;;;325.25;308.75;13.90;44.70;;;;;;5086523;28;8861;-59
2021/10/28 08:32:10;;;;;;;;;312.50;297.00;14.00;44.60;;;;;;5081821;28;8786;-62
2021/10/28 08:34:37;;;;;;;;;319.00;299.25;14.10;44.60;;;;;;5094828;28;8772;-65
2021/10/28 08:37:14;;;;;;;;;318.00;300.75;14.20;44.50;;;;;;5094986;28;8788;-67
2021/10/28 08:39:49;;;;;;;;;318.50;296.50;14.20;44.10;;;;;;5065993;28;8827;-62
2021/10/28 08:42:17;;;;;;;;;303.25;287.50;14.30;44.00;;;;;;5076981;28;8802;-61
2021/10/28 08:44:48;;;;;;;;;315.75;302.25;14.50;43.90;;;;;;5091802;28;8791;-61
2021/10/28 08:47:15;;;;;;;;;315.75;306.00;14.60;44.20;;;;;;5086219;28;8782;-66
2021/10/28 08:50:27;;;;;;;;;278.50;269.00;14.70;44.20;;;;;;5084866;28;8768;-59
2021/10/28 09:30:45;;;;;;;;;156.00;149.00;15.90;46.40;;;;;;5018779;28;8773;-68
2021/10/28 09:33:20;;;;;;;;;171.75;164.25;16.10;44.50;;;;;;5094629;28;8782;-67
2021/10/28 09:44:47;;;;;;;;;199.50;192.50;16.50;43.70;;;;;;5079065;28;8744;-69
2021/10/28 09:50:16;;;;;;;;;218.75;209.25;16.90;42.50;;;;;;5094140;28;8799;-69
2021/10/28 09:52:55;;;;;;;;;196.00;186.00;17.10;42.10;;;;;;5095575;28;8760;-68
2021/10/28 09:58:29;;;;;;;;;230.00;215.25;17.70;41.80;;;;;;5095158;28;9840;-71
2021/10/28 10:00:56;;;;;;;;;202.00;191.75;18.00;41.50;;;;;;5088802;28;8897;-69
2021/10/28 10:03:26;;;;;;;;;169.00;159.25;18.40;40.60;;;;;;5096895;28;8760;-72
2021/10/28 10:06:00;;;;;;;;;115.75;113.75;18.80;40.00;;;;;;5084682;28;8797;-71
2021/10/28 10:08:27;;;;;;;;;115.25;111.50;19.10;37.90;;;;;;5088125;28;9513;-66
2021/10/28 10:10:54;;;;;;;;;103.00;101.00;19.30;37.40;;;;;;5090602;28;8778;-70
2021/10/28 10:13:28;;;;;;;;;106.50;104.25;19.90;36.10;;;;;;5096186;28;9417;-68
2021/10/28 10:16:00;;;;;;;;;104.00;101.25;20.40;35.30;;;;;;5094917;28;8832;-69
2021/10/28 10:18:28;;;;;;;;;106.00;103.75;20.70;34.80;;;;;;5083933;28;8835;-68
2021/10/28 10:21:00;;;;;;;;;109.75;108.25;21.20;34.50;;;;;;5082290;28;8948;-73
2021/10/28 12:01:43;;;;;;;;;59.33;50.00;37.90;15.30;;;;;;5071390;28;9397;-66
2021/10/28 12:14:18;;;;;;;;;58.25;48.25;38.00;15.30;;;;;;5093916;28;8807;-63
2021/10/28 12:48:09;;;;;;;;;55.67;47.00;34.60;16.80;;;;;;5095265;28;8869;-73
2021/10/28 13:06:40;;;;;;;;;59.00;49.50;33.70;17.10;;;;;;5094847;28;9372;-69
2021/10/28 15:27:41;;;;;;;;;102.50;99.00;21.90;29.80;;;;;;5097056;28;8756;-65
2021/10/28 15:27:59;;;;;;;;;126.50;124.50;20.90;32.40;;;;;;5096632;28;8716;-63
2021/10/28 16:23:52;;;;;;;;;108.75;106.50;19.20;36.40;;;;;;5095262;28;8783;-68
2021/10/28 16:26:18;;;;;;;;;101.50;99.00;19.10;36.60;;;;;;5095579;28;8802;-68
2021/10/28 16:28:44;;;;;;;;;104.00;102.25;19.10;36.80;;;;;;5095404;28;9410;-68
2021/10/28 16:31:10;;;;;;;;;95.00;95.00;19.00;36.70;;;;;;5095229;28;8802;-67
2021/10/28 16:33:36;;;;;;;;;97.00;96.25;19.00;36.90;;;;;;5095285;28;8783;-68
2021/10/28 16:36:02;;;;;;;;;97.00;95.50;18.90;37.10;;;;;;5094984;28;8772;-66
2021/10/28 16:38:27;;;;;;;;;98.75;98.50;18.90;36.90;;;;;;5095403;28;8886;-69
2021/10/28 16:40:53;;;;;;;;;101.50;100.25;18.90;37.10;;;;;;5094964;28;8926;-60
2021/10/28 16:43:19;;;;;;;;;101.00;97.25;18.80;36.90;;;;;;5095255;28;8751;-61
2021/10/28 16:45:46;;;;;;;;;109.00;107.25;18.80;36.90;;;;;;5095375;28;9456;-63
2021/10/28 16:48:16;;;;;;;;;121.75;120.25;18.70;37.20;;;;;;5095081;28;8863;-63
2021/10/28 16:50:42;;;;;;;;;155.25;152.75;18.70;37.40;;;;;;5094818;28;8787;-61
2021/10/28 16:53:08;;;;;;;;;172.00;164.50;18.60;37.60;;;;;;5076835;28;9444;-60
2021/10/28 16:55:35;;;;;;;;;158.00;153.00;18.60;37.70;;;;;;5094672;28;8860;-58
2021/10/28 16:58:01;;;;;;;;;148.25;144.00;18.50;38.00;;;;;;5095146;28;8789;-61
2021/10/28 17:00:27;;;;;;;;;131.00;128.00;18.40;38.00;;;;;;5094607;28;8776;-60
2021/10/28 17:02:53;;;;;;;;;142.50;140.00;18.30;38.40;;;;;;5076474;28;8789;-61
2021/10/28 17:05:19;;;;;;;;;164.75;156.75;18.30;38.50;;;;;;5094763;28;8883;-61
2021/10/28 17:07:46;;;;;;;;;168.75;162.50;18.20;38.80;;;;;;5094721;28;8756;-63
2021/10/28 17:10:12;;;;;;;;;176.50;172.75;18.10;39.10;;;;;;5094688;28;8870;-58
2021/10/28 17:12:39;;;;;;;;;180.75;177.25;18.10;39.50;;;;;;5094214;28;9428;-59
2021/10/28 17:15:06;;;;;;;;;180.25;175.00;18.00;39.30;;;;;;5087895;28;8786;-61
2021/10/28 17:17:32;;;;;;;;;190.00;186.00;17.90;39.60;;;;;;5080605;28;8881;-61
2021/10/28 17:20:05;;;;;;;;;193.75;189.50;17.80;39.90;;;;;;5092611;28;8790;-67
2021/10/28 17:22:32;;;;;;;;;189.25;183.25;17.80;40.10;;;;;;5082124;28;8808;-61
2021/10/28 17:24:59;;;;;;;;;207.25;198.75;17.70;40.30;;;;;;5085840;28;8795;-61
2021/10/28 17:27:25;;;;;;;;;215.50;209.50;17.70;40.60;;;;;;5087201;28;9449;-62
2021/10/28 17:29:50;;;;;;;;;234.75;226.00;17.70;40.50;;;;;;5075778;28;8877;-60
2021/10/28 17:32:16;;;;;;;;;225.50;215.00;17.60;40.50;;;;;;5075037;28;8781;-60
2021/10/28 17:34:42;;;;;;;;;224.00;216.00;17.60;40.40;;;;;;5077119;28;8809;-57
2021/10/28 17:37:08;;;;;;;;;216.00;203.75;17.60;40.60;;;;;;5085362;28;8823;-60
2021/10/28 17:39:34;;;;;;;;;230.00;217.00;17.50;40.80;;;;;;5094286;28;8776;-61
2021/10/28 17:42:00;;;;;;;;;219.25;206.25;17.50;40.80;;;;;;5089469;28;8814;-60
2021/10/28 17:44:37;;;;;;;;;243.75;233.75;17.50;40.60;;;;;;5074142;28;8774;-61
2021/10/28 17:47:05;;;;;;;;;244.25;232.00;17.40;40.50;;;;;;5074092;28;8778;-62
2021/10/28 17:49:31;;;;;;;;;259.00;249.00;17.40;42.00;;;;;;5080623;28;8780;-58
2021/10/28 17:51:57;;;;;;;;;279.75;265.00;17.30;41.10;;;;;;5092713;28;8852;-66
2021/10/28 17:54:22;;;;;;;;;300.50;283.50;17.30;40.90;;;;;;5093296;28;8771;-59
2021/10/28 17:56:48;;;;;;;;;338.50;324.00;17.30;41.10;;;;;;5092622;28;8782;-71
2021/10/28 17:59:17;;;;;;;;;357.75;339.25;17.20;41.10;;;;;;5093124;28;11585;-62
2021/10/28 18:01:43;;;;;;;;;375.00;354.50;17.10;41.40;;;;;;5094038;28;9449;-60
2021/10/28 18:04:10;;;;;;;;;377.20;358.00;17.10;41.70;;;;;;5093995;28;8760;-61
2021/10/28 18:06:36;;;;;;;;;390.00;366.25;17.00;41.70;;;;;;5094011;28;8803;-63
2021/10/28 18:09:05;;;;;;;;;565.40;517.60;17.00;41.70;;;;;;5093750;28;8764;-67
2021/10/28 18:11:32;;;;;;;;;561.20;500.20;16.90;41.70;;;;;;5093628;28;8860;-64
2021/10/28 18:13:59;;;;;;;;;607.00;534.00;16.90;41.80;;;;;;5082134;28;8808;-65
2021/10/28 18:16:27;;;;;;;;;513.40;469.80;16.80;42.00;;;;;;5084695;28;8770;-69
2021/10/28 18:18:58;;;;;;;;;605.80;539.80;16.80;42.00;;;;;;5084707;28;9879;-69
2021/10/28 18:21:25;;;;;;;;;590.60;545.00;16.70;42.20;;;;;;5064731;28;8821;-58
2021/10/28 18:23:55;;;;;;;;;594.80;557.60;16.70;42.30;;;;;;5092958;28;8776;-65
2021/10/28 18:26:23;;;;;;;;;564.00;531.00;16.70;43.40;;;;;;5094049;28;8776;-57
2021/10/28 18:28:50;;;;;;;;;582.20;527.80;16.60;42.40;;;;;;5085047;28;8802;-65
2021/10/28 18:31:16;;;;;;;;;559.40;509.40;16.60;42.60;;;;;;5088228;28;8796;-63
2021/10/28 18:33:43;;;;;;;;;561.00;518.00;16.50;42.70;;;;;;5091699;28;8806;-66
2021/10/28 18:36:12;;;;;;;;;546.60;505.60;16.50;42.70;;;;;;5096856;28;9040;-61
2021/10/28 18:38:38;;;;;;;;;593.60;533.60;16.50;42.90;;;;;;5097064;28;8948;-70
2021/10/28 18:41:04;;;;;;;;;626.00;559.17;16.50;43.00;;;;;;5097149;28;8815;-68
2021/10/28 18:43:31;;;;;;;;;610.40;545.60;16.40;43.00;;;;;;5097024;28;8784;-64
2021/10/28 18:45:58;;;;;;;;;587.00;539.33;16.40;43.20;;;;;;5096899;28;8776;-64
2021/10/28 18:48:25;;;;;;;;;589.00;523.33;16.30;43.30;;;;;;5086624;28;8778;-64
2021/10/28 18:50:52;;;;;;;;;588.67;541.33;16.30;43.30;;;;;;5076625;28;8785;-64
2021/10/28 18:53:18;;;;;;;;;596.50;541.50;16.20;43.50;;;;;;5087944;28;8770;-61
2021/10/28 18:55:44;;;;;;;;;603.80;549.60;16.20;44.70;;;;;;5096787;28;8874;-74
2021/10/28 18:58:10;;;;;;;;;609.80;555.60;16.10;43.70;;;;;;5096636;28;8763;-64
2021/10/28 19:00:36;;;;;;;;;602.80;546.00;16.10;43.80;;;;;;5096550;28;8791;-65
2021/10/28 19:03:02;;;;;;;;;642.60;584.40;16.10;43.80;;;;;;5096629;28;8772;-62
2021/10/28 19:05:29;;;;;;;;;672.00;596.33;16.00;43.60;;;;;;5096504;28;8778;-63
2021/10/28 19:07:55;;;;;;;;;663.17;587.50;16.00;43.60;;;;;;5096654;28;8808;-64
2021/10/28 19:10:21;;;;;;;;;651.20;589.40;16.00;43.60;;;;;;5096728;28;8893;-67
2021/10/28 19:12:47;;;;;;;;;675.40;598.20;16.00;43.70;;;;;;5096542;28;8752;-65
2021/10/28 19:15:15;;;;;;;;;710.20;629.20;16.00;43.80;;;;;;5096428;28;8836;-60
2021/10/28 19:17:45;;;;;;;;;651.80;585.80;16.00;43.80;;;;;;5096469;28;8764;-65
2021/10/28 19:20:11;;;;;;;;;711.00;610.20;15.90;43.80;;;;;;5096233;28;8776;-61
2021/10/28 19:22:38;;;;;;;;;681.20;614.00;15.90;44.80;;;;;;5096131;28;8784;-63
2021/10/28 19:25:05;;;;;;;;;714.40;648.20;15.80;43.90;;;;;;5096030;28;8759;-63
2021/10/28 19:27:32;;;;;;;;;834.60;718.20;15.80;44.00;;;;;;5095218;28;8771;-62
2021/10/28 19:30:07;;;;;;;;;792.60;693.00;15.80;44.00;;;;;;5088037;28;8795;-62
2021/10/28 19:32:34;;;;;;;;;709.00;642.40;15.80;44.00;;;;;;5058097;28;8904;-63
2021/10/28 19:35:00;;;;;;;;;708.20;602.00;15.80;44.10;;;;;;5078393;28;9439;-64
2021/10/28 19:37:38;;;;;;;;;733.40;652.00;15.70;44.40;;;;;;5088637;28;8842;-68
2021/10/28 19:40:17;;;;;;;;;748.60;655.40;15.70;44.20;;;;;;5095965;28;8768;-62
2021/10/28 19:45:27;;;;;;;;;733.60;639.80;15.60;44.30;;;;;;5095817;28;8752;-64
2021/10/28 19:47:53;;;;;;;;;731.20;655.20;15.60;45.20;;;;;;5096065;28;8772;-62
2021/10/28 19:50:20;;;;;;;;;671.00;600.40;15.60;44.20;;;;;;5095717;28;8872;-63
2021/10/28 19:52:46;;;;;;;;;659.60;610.60;15.60;44.30;;;;;;5095590;28;9491;-75
2021/10/28 19:55:13;;;;;;;;;672.17;594.17;15.60;44.10;;;;;;5095509;28;8886;-66
2021/10/28 19:57:43;;;;;;;;;709.33;606.17;15.60;44.10;;;;;;5095835;28;8768;-63
2021/10/28 20:03:03;;;;;;;;;708.60;615.20;15.60;43.70;;;;;;5094147;28;8896;-64
2021/10/28 20:05:40;;;;;;;;;690.40;618.60;15.50;43.70;;;;;;5092558;28;8776;-63
2021/10/28 20:21:33;;;;;;;;;522.00;493.60;15.30;43.70;;;;;;5079040;28;10147;-62
2021/10/28 20:24:00;;;;;;;;;541.20;498.80;15.30;43.90;;;;;;5054102;28;8805;-62
2021/10/28 20:26:26;;;;;;;;;505.40;465.80;15.20;44.00;;;;;;5055034;28;8774;-60
2021/10/28 20:28:54;;;;;;;;;514.75;475.50;15.20;44.10;;;;;;5054349;28;10329;-61
2021/10/28 20:31:21;;;;;;;;;523.60;473.80;15.20;44.10;;;;;;5054880;28;11570;-61
2021/10/28 20:34:02;;;;;;;;;504.25;470.25;15.10;44.00;;;;;;5059164;28;10632;-60
2021/10/28 20:39:04;;;;;;;;;511.80;458.60;15.00;44.10;;;;;;5054908;28;8743;-61
2021/10/28 20:41:31;;;;;;;;;471.20;428.40;15.00;44.30;;;;;;5054935;28;8806;-61
2021/10/28 20:43:58;;;;;;;;;459.40;427.00;14.90;44.50;;;;;;5054632;28;8844;-63
2021/10/28 20:46:27;;;;;;;;;448.60;400.60;14.90;44.40;;;;;;5054442;28;8794;-61
2021/10/28 20:48:55;;;;;;;;;464.75;438.75;14.80;44.50;;;;;;5054887;28;8852;-61
2021/10/28 20:51:22;;;;;;;;;450.20;424.40;14.80;44.70;;;;;;5054606;28;8759;-60
2021/10/28 20:53:48;;;;;;;;;446.40;420.60;14.80;44.50;;;;;;5054102;28;9505;-60
2021/10/28 20:56:14;;;;;;;;;409.75;383.00;14.70;44.50;;;;;;5055566;28;10161;-60
2021/10/28 20:58:41;;;;;;;;;518.00;467.20;14.70;44.60;;;;;;5054274;28;8771;-59
2021/10/28 21:01:07;;;;;;;;;508.60;461.20;14.70;44.60;;;;;;5054192;28;8911;-60
2021/10/28 21:03:33;;;;;;;;;497.00;464.40;14.80;44.40;;;;;;5054187;28;8783;-59
2021/10/28 21:06:00;;;;;;;;;508.80;469.20;14.80;44.00;;;;;;5054095;28;8809;-61
2021/10/28 21:08:27;;;;;;;;;477.80;443.20;14.80;44.00;;;;;;5054357;28;9510;-60
2021/10/28 21:10:54;;;;;;;;;443.80;424.00;14.80;43.90;;;;;;5047683;28;8918;-61
2021/10/28 21:13:21;;;;;;;;;459.25;414.25;14.80;43.90;;;;;;5037865;28;8815;-60
2021/10/28 21:15:47;;;;;;;;;463.60;428.00;14.80;43.90;;;;;;5034165;28;8778;-61
2021/10/28 21:18:13;;;;;;;;;522.40;472.60;14.70;44.00;;;;;;5041424;28;8787;-61
2021/10/28 21:20:39;;;;;;;;;519.60;483.80;14.70;44.00;;;;;;5052108;28;8810;-61
2021/10/28 21:23:05;;;;;;;;;559.20;505.00;14.70;44.20;;;;;;5043617;28;8767;-60
2021/10/28 21:25:32;;;;;;;;;483.20;447.60;14.70;44.10;;;;;;5036183;28;12279;-60
2021/10/28 21:27:58;;;;;;;;;505.20;459.00;14.70;43.90;;;;;;5035336;28;8774;-61
2021/10/28 21:30:23;;;;;;;;;483.80;449.20;14.60;43.90;;;;;;5047476;28;8787;-61
2021/10/28 21:32:50;;;;;;;;;459.25;410.00;14.60;43.80;;;;;;5044808;28;8777;-60
2021/10/28 21:35:16;;;;;;;;;448.00;417.20;14.50;43.70;;;;;;5043188;28;9505;-60
2021/10/28 21:37:44;;;;;;;;;436.00;401.80;14.40;43.70;;;;;;5043954;28;9445;-60
2021/10/28 21:40:11;;;;;;;;;432.40;399.40;14.40;43.70;;;;;;5035385;28;8785;-60